Terminal Aerodrome Forecast
Issued by NWS

Home | Current Version | Previous Version | Graphics & Text | Print | Product List | Glossary On
Versions: 1 2 3 4 5 6 7 8 9 10 11 12 13 14 15 16 17 18 19 20 21 22
000
FTUS43 KTOP 241122
TAFMHK
TAF
KMHK 241122Z 2412/2512 12007KT 6SM TSRA BR SCT015 OVC050CB
      TEMPO 2412/2414 3SM TSRA
     FM241600 14009KT P6SM SCT025 BKN150
     FM242000 18012KT P6SM SCT035
     FM250600 18012KT P6SM VCTS SCT035CB=

USA.gov is the U.S. government's official web portal to all federal, state and local government web resources and services.